sensor_id;sensor_type;location;lat;lon;timestamp;pressure;altitude;pressure_sealevel;temperature;humidity
21879;BME280;27908;42.708;23.278;2023-05-27T00:02:00;64163.19;;;13.56;100.00
21879;BME280;27908;42.708;23.278;2023-05-27T00:04:25;64182.28;;;13.67;100.00
21879;BME280;27908;42.708;23.278;2023-05-27T00:06:51;64192.66;;;13.80;100.00
21879;BME280;27908;42.708;23.278;2023-05-27T00:09:16;64243.91;;;13.80;100.00
21879;BME280;27908;42.708;23.278;2023-05-27T00:11:42;64255.47;;;14.03;100.00
21879;BME280;27908;42.708;23.278;2023-05-27T00:14:07;64273.47;;;14.08;100.00
21879;BME280;27908;42.708;23.278;2023-05-27T00:16:33;64223.31;;;14.16;100.00
21879;BME280;27908;42.708;23.278;2023-05-27T00:19:02;64267.00;;;14.26;100.00
21879;BME280;27908;42.708;23.278;2023-05-27T00:21:27;64278.78;;;14.25;100.00
21879;BME280;27908;42.708;23.278;2023-05-27T00:23:53;64263.47;;;14.30;100.00
21879;BME280;27908;42.708;23.278;2023-05-27T00:26:18;64275.81;;;14.34;100.00
21879;BME280;27908;42.708;23.278;2023-05-27T00:28:44;64291.72;;;14.35;100.00
21879;BME280;27908;42.708;23.278;2023-05-27T00:31:09;64263.53;;;14.37;100.00
21879;BME280;27908;42.708;23.278;2023-05-27T00:33:35;64263.97;;;14.28;100.00
21879;BME280;27908;42.708;23.278;2023-05-27T00:36:00;64256.28;;;14.30;100.00
21879;BME280;27908;42.708;23.278;2023-05-27T00:38:25;64308.22;;;14.43;100.00
21879;BME280;27908;42.708;23.278;2023-05-27T00:40:53;64309.31;;;14.49;100.00
21879;BME280;27908;42.708;23.278;2023-05-27T00:43:18;64314.88;;;14.42;100.00
21879;BME280;27908;42.708;23.278;2023-05-27T00:45:44;64312.44;;;14.52;100.00
21879;BME280;27908;42.708;23.278;2023-05-27T00:48:10;64259.44;;;14.38;100.00
21879;BME280;27908;42.708;23.278;2023-05-27T00:50:35;64295.00;;;14.53;100.00
21879;BME280;27908;42.708;23.278;2023-05-27T00:53:02;64302.22;;;14.57;100.00
21879;BME280;27908;42.708;23.278;2023-05-27T00:55:27;64321.16;;;14.53;100.00
21879;BME280;27908;42.708;23.278;2023-05-27T00:57:53;64304.78;;;14.55;100.00
21879;BME280;27908;42.708;23.278;2023-05-27T01:00:20;64317.03;;;14.52;100.00
21879;BME280;27908;42.708;23.278;2023-05-27T01:02:46;64285.16;;;14.46;100.00
21879;BME280;27908;42.708;23.278;2023-05-27T01:05:14;64313.34;;;14.41;100.00
21879;BME280;27908;42.708;23.278;2023-05-27T01:07:53;64279.03;;;14.47;100.00
21879;BME280;27908;42.708;23.278;2023-05-27T01:15:24;64349.81;;;14.46;100.00
21879;BME280;27908;42.708;23.278;2023-05-27T01:17:53;64300.47;;;14.36;100.00
21879;BME280;27908;42.708;23.278;2023-05-27T01:20:20;64292.31;;;14.43;100.00
21879;BME280;27908;42.708;23.278;2023-05-27T01:22:47;64283.50;;;14.32;100.00
21879;BME280;27908;42.708;23.278;2023-05-27T01:25:12;64298.91;;;14.34;100.00
21879;BME280;27908;42.708;23.278;2023-05-27T01:27:38;64298.91;;;14.37;100.00
21879;BME280;27908;42.708;23.278;2023-05-27T01:30:06;64266.53;;;14.28;100.00
21879;BME280;27908;42.708;23.278;2023-05-27T01:32:39;64300.38;;;14.28;100.00
21879;BME280;27908;42.708;23.278;2023-05-27T01:37:35;64248.56;;;14.28;100.00
21879;BME280;27908;42.708;23.278;2023-05-27T01:40:02;64244.47;;;14.29;100.00
21879;BME280;27908;42.708;23.278;2023-05-27T01:42:30;64315.19;;;14.25;100.00
21879;BME280;27908;42.708;23.278;2023-05-27T01:44:56;64281.84;;;14.23;100.00
21879;BME280;27908;42.708;23.278;2023-05-27T01:47:22;64254.06;;;14.14;100.00
21879;BME280;27908;42.708;23.278;2023-05-27T01:49:47;64226.84;;;14.10;100.00
21879;BME280;27908;42.708;23.278;2023-05-27T01:52:12;64201.97;;;13.88;100.00
21879;BME280;27908;42.708;23.278;2023-05-27T01:54:38;64225.53;;;13.86;100.00
21879;BME280;27908;42.708;23.278;2023-05-27T01:57:04;64202.41;;;13.82;100.00
21879;BME280;27908;42.708;23.278;2023-05-27T01:59:31;64215.03;;;13.64;100.00
21879;BME280;27908;42.708;23.278;2023-05-27T02:01:56;64181.75;;;13.67;100.00
21879;BME280;27908;42.708;23.278;2023-05-27T02:04:22;64188.44;;;13.68;100.00
21879;BME280;27908;42.708;23.278;2023-05-27T02:06:47;64174.09;;;13.67;100.00
21879;BME280;27908;42.708;23.278;2023-05-27T02:09:13;64192.00;;;13.67;100.00
21879;BME280;27908;42.708;23.278;2023-05-27T02:11:38;64162.66;;;13.53;100.00
21879;BME280;27908;42.708;23.278;2023-05-27T02:14:04;64203.78;;;13.66;100.00
21879;BME280;27908;42.708;23.278;2023-05-27T02:16:30;64316.97;;;13.64;100.00
21879;BME280;27908;42.708;23.278;2023-05-27T02:19:00;64178.50;;;13.51;100.00
21879;BME280;27908;42.708;23.278;2023-05-27T02:21:26;64184.13;;;13.50;100.00
21879;BME280;27908;42.708;23.278;2023-05-27T02:23:51;64140.00;;;13.44;100.00
21879;BME280;27908;42.708;23.278;2023-05-27T02:26:17;64150.09;;;13.29;100.00
21879;BME280;27908;42.708;23.278;2023-05-27T02:28:42;64102.53;;;13.33;100.00
21879;BME280;27908;42.708;23.278;2023-05-27T02:31:08;64147.19;;;13.44;100.00
21879;BME280;27908;42.708;23.278;2023-05-27T02:33:34;64113.22;;;13.28;100.00
21879;BME280;27908;42.708;23.278;2023-05-27T02:35:59;64099.91;;;13.28;100.00
21879;BME280;27908;42.708;23.278;2023-05-27T02:38:25;64144.59;;;13.41;100.00
21879;BME280;27908;42.708;23.278;2023-05-27T02:40:51;64157.38;;;13.39;100.00
21879;BME280;27908;42.708;23.278;2023-05-27T02:43:16;64150.09;;;13.29;100.00
21879;BME280;27908;42.708;23.278;2023-05-27T02:45:42;64121.94;;;13.29;100.00
21879;BME280;27908;42.708;23.278;2023-05-27T02:48:08;64116.28;;;13.26;100.00
21879;BME280;27908;42.708;23.278;2023-05-27T02:50:33;64137.78;;;13.27;100.00
21879;BME280;27908;42.708;23.278;2023-05-27T02:52:58;64149.59;;;13.31;100.00
21879;BME280;27908;42.708;23.278;2023-05-27T02:55:24;64150.69;;;13.37;100.00
21879;BME280;27908;42.708;23.278;2023-05-27T02:57:49;64127.66;;;13.37;100.00
21879;BME280;27908;42.708;23.278;2023-05-27T03:00:15;64170.09;;;13.34;100.00
21879;BME280;27908;42.708;23.278;2023-05-27T03:02:41;64131.16;;;13.28;100.00
21879;BME280;27908;42.708;23.278;2023-05-27T03:05:07;64193.72;;;13.39;100.00
21879;BME280;27908;42.708;23.278;2023-05-27T03:07:32;64180.97;;;13.44;100.00
21879;BME280;27908;42.708;23.278;2023-05-27T03:09:58;64083.63;;;13.39;100.00
21879;BME280;27908;42.708;23.278;2023-05-27T03:12:24;64141.97;;;13.36;100.00
21879;BME280;27908;42.708;23.278;2023-05-27T03:14:50;64125.53;;;13.30;100.00
21879;BME280;27908;42.708;23.278;2023-05-27T03:17:16;64154.78;;;13.36;100.00
21879;BME280;27908;42.708;23.278;2023-05-27T03:19:42;64111.50;;;13.12;100.00
21879;BME280;27908;42.708;23.278;2023-05-27T03:22:08;64124.41;;;13.22;100.00
21879;BME280;27908;42.708;23.278;2023-05-27T03:24:34;64121.34;;;13.24;100.00
21879;BME280;27908;42.708;23.278;2023-05-27T03:27:00;64136.19;;;13.23;100.00
21879;BME280;27908;42.708;23.278;2023-05-27T03:29:26;64118.28;;;13.23;100.00
21879;BME280;27908;42.708;23.278;2023-05-27T03:31:52;64113.53;;;13.12;100.00
21879;BME280;27908;42.708;23.278;2023-05-27T03:34:17;64147.38;;;13.17;100.00
21879;BME280;27908;42.708;23.278;2023-05-27T03:36:43;64119.78;;;13.20;100.00
21879;BME280;27908;42.708;23.278;2023-05-27T03:39:12;64093.13;;;13.16;100.00
21879;BME280;27908;42.708;23.278;2023-05-27T03:41:38;64142.16;;;13.07;100.00
21879;BME280;27908;42.708;23.278;2023-05-27T03:44:03;64071.06;;;13.13;100.00
21879;BME280;27908;42.708;23.278;2023-05-27T03:46:29;64111.44;;;13.07;100.00
21879;BME280;27908;42.708;23.278;2023-05-27T03:48:55;64115.19;;;13.20;100.00
21879;BME280;27908;42.708;23.278;2023-05-27T03:51:21;64147.97;;;13.22;100.00
21879;BME280;27908;42.708;23.278;2023-05-27T03:53:47;64164.06;;;13.43;100.00
21879;BME280;27908;42.708;23.278;2023-05-27T03:56:12;64193.75;;;13.42;100.00
21879;BME280;27908;42.708;23.278;2023-05-27T03:58:37;64182.19;;;13.60;100.00
21879;BME280;27908;42.708;23.278;2023-05-27T04:01:03;64119.06;;;13.49;100.00
21879;BME280;27908;42.708;23.278;2023-05-27T04:03:28;64147.81;;;13.54;100.00
21879;BME280;27908;42.708;23.278;2023-05-27T04:05:54;64221.25;;;13.70;100.00
21879;BME280;27908;42.708;23.278;2023-05-27T04:08:22;64210.03;;;13.77;100.00
21879;BME280;27908;42.708;23.278;2023-05-27T04:10:48;64222.41;;;13.81;100.00
21879;BME280;27908;42.708;23.278;2023-05-27T04:13:13;64218.81;;;13.83;100.00
21879;BME280;27908;42.708;23.278;2023-05-27T04:15:39;64255.81;;;13.91;100.00
21879;BME280;27908;42.708;23.278;2023-05-27T04:18:04;64214.81;;;13.91;100.00
21879;BME280;27908;42.708;23.278;2023-05-27T04:20:37;64230.31;;;14.01;100.00
21879;BME280;27908;42.708;23.278;2023-05-27T04:23:04;64230.38;;;14.03;100.00
21879;BME280;27908;42.708;23.278;2023-05-27T04:25:29;64284.78;;;14.11;100.00
21879;BME280;27908;42.708;23.278;2023-05-27T04:27:55;64276.66;;;14.18;100.00
21879;BME280;27908;42.708;23.278;2023-05-27T04:30:21;64265.59;;;14.39;100.00
21879;BME280;27908;42.708;23.278;2023-05-27T04:32:47;64316.00;;;14.51;100.00
21879;BME280;27908;42.708;23.278;2023-05-27T04:35:12;64344.84;;;14.61;100.00
21879;BME280;27908;42.708;23.278;2023-05-27T04:37:38;64349.09;;;14.72;100.00
21879;BME280;27908;42.708;23.278;2023-05-27T04:40:06;64346.59;;;14.80;100.00
21879;BME280;27908;42.708;23.278;2023-05-27T04:42:33;64364.22;;;14.94;100.00
21879;BME280;27908;42.708;23.278;2023-05-27T04:45:02;64411.63;;;15.10;100.00
21879;BME280;27908;42.708;23.278;2023-05-27T04:47:28;64454.97;;;15.27;100.00
21879;BME280;27908;42.708;23.278;2023-05-27T04:49:55;64428.31;;;15.30;100.00
21879;BME280;27908;42.708;23.278;2023-05-27T04:52:21;64423.25;;;15.35;100.00
21879;BME280;27908;42.708;23.278;2023-05-27T04:54:48;64459.28;;;15.43;100.00
21879;BME280;27908;42.708;23.278;2023-05-27T04:57:13;64487.09;;;15.47;100.00
21879;BME280;27908;42.708;23.278;2023-05-27T04:59:44;64447.50;;;15.46;100.00
21879;BME280;27908;42.708;23.278;2023-05-27T05:02:43;64470.09;;;15.43;100.00
21879;BME280;27908;42.708;23.278;2023-05-27T05:05:13;64462.47;;;15.53;100.00
21879;BME280;27908;42.708;23.278;2023-05-27T05:07:39;64505.53;;;15.43;100.00
21879;BME280;27908;42.708;23.278;2023-05-27T05:10:10;64452.00;;;15.36;100.00
21879;BME280;27908;42.708;23.278;2023-05-27T05:12:37;64472.59;;;15.38;100.00
21879;BME280;27908;42.708;23.278;2023-05-27T05:15:03;64490.72;;;15.51;100.00
21879;BME280;27908;42.708;23.278;2023-05-27T05:17:29;64461.53;;;15.60;100.00
21879;BME280;27908;42.708;23.278;2023-05-27T05:19:54;64477.22;;;15.38;100.00
21879;BME280;27908;42.708;23.278;2023-05-27T05:22:20;64472.59;;;15.38;100.00
21879;BME280;27908;42.708;23.278;2023-05-27T05:24:48;64481.41;;;15.47;100.00
21879;BME280;27908;42.708;23.278;2023-05-27T05:27:14;64426.31;;;15.33;100.00
21879;BME280;27908;42.708;23.278;2023-05-27T05:29:39;64498.31;;;15.41;100.00
21879;BME280;27908;42.708;23.278;2023-05-27T05:32:05;64533.84;;;15.48;100.00
21879;BME280;27908;42.708;23.278;2023-05-27T05:34:31;64477.81;;;15.46;100.00
21879;BME280;27908;42.708;23.278;2023-05-27T05:36:56;64480.31;;;15.41;100.00
21879;BME280;27908;42.708;23.278;2023-05-27T05:39:22;64455.97;;;15.69;100.00
21879;BME280;27908;42.708;23.278;2023-05-27T05:41:48;64571.38;;;15.88;100.00
21879;BME280;27908;42.708;23.278;2023-05-27T05:44:13;64555.06;;;16.02;100.00
21879;BME280;27908;42.708;23.278;2023-05-27T05:46:39;64694.59;;;16.12;100.00
21879;BME280;27908;42.708;23.278;2023-05-27T05:49:04;64599.63;;;16.27;100.00
21879;BME280;27908;42.708;23.278;2023-05-27T05:51:30;64604.28;;;16.29;100.00
21879;BME280;27908;42.708;23.278;2023-05-27T05:53:57;64598.41;;;16.14;100.00
21879;BME280;27908;42.708;23.278;2023-05-27T05:56:22;64655.13;;;16.21;100.00
21879;BME280;27908;42.708;23.278;2023-05-27T05:58:47;64574.28;;;16.18;100.00
21879;BME280;27908;42.708;23.278;2023-05-27T06:01:13;64631.00;;;16.28;100.00
21879;BME280;27908;42.708;23.278;2023-05-27T06:03:38;64630.13;;;16.39;100.00
21879;BME280;27908;42.708;23.278;2023-05-27T06:06:04;64680.25;;;16.55;100.00
21879;BME280;27908;42.708;23.278;2023-05-27T06:08:29;64703.50;;;16.65;100.00
21879;BME280;27908;42.708;23.278;2023-05-27T06:10:55;64661.78;;;16.62;100.00
21879;BME280;27908;42.708;23.278;2023-05-27T06:13:39;64677.25;;;16.64;100.00
21879;BME280;27908;42.708;23.278;2023-05-27T06:16:05;64717.44;;;16.66;100.00
21879;BME280;27908;42.708;23.278;2023-05-27T06:18:31;64710.00;;;16.90;100.00
21879;BME280;27908;42.708;23.278;2023-05-27T06:20:56;64719.78;;;16.90;100.00
21879;BME280;27908;42.708;23.278;2023-05-27T06:23:22;64705.78;;;16.81;100.00
21879;BME280;27908;42.708;23.278;2023-05-27T06:25:47;64757.47;;;16.96;100.00
21879;BME280;27908;42.708;23.278;2023-05-27T06:28:12;64762.88;;;17.16;100.00
21879;BME280;27908;42.708;23.278;2023-05-27T06:30:38;64755.50;;;17.04;100.00
21879;BME280;27908;42.708;23.278;2023-05-27T06:33:04;64717.78;;;16.95;100.00
21879;BME280;27908;42.708;23.278;2023-05-27T06:35:29;64776.72;;;17.12;100.00
21879;BME280;27908;42.708;23.278;2023-05-27T06:37:58;64796.56;;;17.31;100.00
21879;BME280;27908;42.708;23.278;2023-05-27T06:40:24;64832.75;;;17.38;100.00
21879;BME280;27908;42.708;23.278;2023-05-27T06:42:49;64887.66;;;17.58;100.00
21879;BME280;27908;42.708;23.278;2023-05-27T06:45:15;64925.13;;;17.84;100.00
21879;BME280;27908;42.708;23.278;2023-05-27T06:47:40;64925.25;;;17.96;100.00
21879;BME280;27908;42.708;23.278;2023-05-27T06:50:06;64908.69;;;17.90;100.00
21879;BME280;27908;42.708;23.278;2023-05-27T06:52:32;64994.31;;;18.25;100.00
21879;BME280;27908;42.708;23.278;2023-05-27T06:54:57;64920.69;;;18.02;100.00
21879;BME280;27908;42.708;23.278;2023-05-27T06:57:22;64975.56;;;18.12;100.00
21879;BME280;27908;42.708;23.278;2023-05-27T06:59:48;65014.56;;;18.34;100.00
21879;BME280;27908;42.708;23.278;2023-05-27T07:02:13;64950.81;;;18.13;100.00
21879;BME280;27908;42.708;23.278;2023-05-27T07:04:39;64999.03;;;18.32;100.00
21879;BME280;27908;42.708;23.278;2023-05-27T07:07:05;65017.09;;;18.29;100.00
21879;BME280;27908;42.708;23.278;2023-05-27T07:09:30;65064.94;;;18.55;100.00
21879;BME280;27908;42.708;23.278;2023-05-27T07:11:56;65058.47;;;18.73;100.00
21879;BME280;27908;42.708;23.278;2023-05-27T07:14:21;65068.94;;;18.86;100.00
21879;BME280;27908;42.708;23.278;2023-05-27T07:16:46;65114.75;;;19.09;100.00
21879;BME280;27908;42.708;23.278;2023-05-27T07:19:12;65111.78;;;19.19;100.00
21879;BME280;27908;42.708;23.278;2023-05-27T07:21:38;65235.22;;;19.45;100.00
21879;BME280;27908;42.708;23.278;2023-05-27T07:24:03;65239.41;;;19.49;100.00
21879;BME280;27908;42.708;23.278;2023-05-27T07:26:30;65139.00;;;19.05;100.00
21879;BME280;27908;42.708;23.278;2023-05-27T07:28:59;65093.72;;;18.82;100.00
21879;BME280;27908;42.708;23.278;2023-05-27T07:31:27;65057.34;;;18.67;100.00
21879;BME280;27908;42.708;23.278;2023-05-27T07:33:53;65068.44;;;18.85;100.00
21879;BME280;27908;42.708;23.278;2023-05-27T07:36:18;65125.38;;;18.92;100.00
21879;BME280;27908;42.708;23.278;2023-05-27T07:38:44;65116.47;;;18.84;100.00
21879;BME280;27908;42.708;23.278;2023-05-27T07:41:10;65068.41;;;18.83;100.00
21879;BME280;27908;42.708;23.278;2023-05-27T07:43:36;65146.69;;;19.00;100.00
21879;BME280;27908;42.708;23.278;2023-05-27T07:46:01;65124.47;;;19.01;100.00
21879;BME280;27908;42.708;23.278;2023-05-27T07:48:28;65083.31;;;18.77;100.00
21879;BME280;27908;42.708;23.278;2023-05-27T07:50:54;65082.94;;;18.87;100.00
21879;BME280;27908;42.708;23.278;2023-05-27T07:53:19;65163.50;;;19.19;100.00
21879;BME280;27908;42.708;23.278;2023-05-27T07:55:45;65206.09;;;19.34;100.00
21879;BME280;27908;42.708;23.278;2023-05-27T07:58:10;65229.94;;;19.37;100.00
21879;BME280;27908;42.708;23.278;2023-05-27T08:00:35;65212.69;;;19.62;100.00
21879;BME280;27908;42.708;23.278;2023-05-27T08:03:01;65304.16;;;19.88;100.00
21879;BME280;27908;42.708;23.278;2023-05-27T08:05:27;65320.88;;;19.98;100.00
21879;BME280;27908;42.708;23.278;2023-05-27T08:07:52;65357.88;;;20.16;100.00
21879;BME280;27908;42.708;23.278;2023-05-27T08:10:18;65412.41;;;20.26;100.00
21879;BME280;27908;42.708;23.278;2023-05-27T08:12:43;65392.38;;;20.36;100.00
21879;BME280;27908;42.708;23.278;2023-05-27T08:15:08;65379.44;;;20.39;97.70
21879;BME280;27908;42.708;23.278;2023-05-27T08:17:34;65413.25;;;20.49;98.60
21879;BME280;27908;42.708;23.278;2023-05-27T08:19:59;65466.31;;;20.62;97.30
21879;BME280;27908;42.708;23.278;2023-05-27T08:22:25;65440.47;;;20.65;96.42
21879;BME280;27908;42.708;23.278;2023-05-27T08:24:50;65492.44;;;20.74;95.77
21879;BME280;27908;42.708;23.278;2023-05-27T08:27:17;65517.78;;;20.71;93.24
21879;BME280;27908;42.708;23.278;2023-05-27T08:29:43;65449.06;;;20.53;94.12
21879;BME280;27908;42.708;23.278;2023-05-27T08:32:09;65464.66;;;20.56;94.73
21879;BME280;27908;42.708;23.278;2023-05-27T08:34:34;65441.34;;;20.56;90.78
21879;BME280;27908;42.708;23.278;2023-05-27T08:36:59;65390.41;;;20.44;93.44
21879;BME280;27908;42.708;23.278;2023-05-27T08:39:26;65391.25;;;20.31;94.44
21879;BME280;27908;42.708;23.278;2023-05-27T08:41:53;65358.97;;;20.20;97.17
21879;BME280;27908;42.708;23.278;2023-05-27T08:44:21;65343.78;;;20.08;96.92
21879;BME280;27908;42.708;23.278;2023-05-27T08:46:50;65371.69;;;20.05;96.42
21879;BME280;27908;42.708;23.278;2023-05-27T08:49:16;65336.44;;;20.01;97.58
21879;BME280;27908;42.708;23.278;2023-05-27T08:51:43;65337.53;;;20.04;100.00
21879;BME280;27908;42.708;23.278;2023-05-27T08:54:09;65329.28;;;20.09;99.90
21879;BME280;27908;42.708;23.278;2023-05-27T08:56:36;65333.91;;;20.06;96.16
21879;BME280;27908;42.708;23.278;2023-05-27T08:59:02;65319.78;;;19.95;94.92
21879;BME280;27908;42.708;23.278;2023-05-27T09:01:28;65290.19;;;19.89;95.21
21879;BME280;27908;42.708;23.278;2023-05-27T09:03:55;65315.47;;;19.84;97.34
21879;BME280;27908;42.708;23.278;2023-05-27T09:06:20;65261.38;;;19.67;97.79
21879;BME280;27908;42.708;23.278;2023-05-27T09:08:46;65288.34;;;19.70;98.33
21879;BME280;27908;42.708;23.278;2023-05-27T09:11:25;65314.88;;;19.78;100.00
21879;BME280;27908;42.708;23.278;2023-05-27T09:13:55;65286.75;;;19.66;99.12
21879;BME280;27908;42.708;23.278;2023-05-27T09:16:21;65286.16;;;19.61;100.00
21879;BME280;27908;42.708;23.278;2023-05-27T09:18:48;65284.66;;;19.64;100.00
21879;BME280;27908;42.708;23.278;2023-05-27T09:21:14;65212.03;;;19.52;100.00
21879;BME280;27908;42.708;23.278;2023-05-27T09:23:40;65246.88;;;19.63;100.00
21879;BME280;27908;42.708;23.278;2023-05-27T09:26:09;65267.16;;;19.72;100.00
21879;BME280;27908;42.708;23.278;2023-05-27T09:28:36;65343.19;;;20.02;100.00
21879;BME280;27908;42.708;23.278;2023-05-27T09:31:03;65362.66;;;20.26;100.00
21879;BME280;27908;42.708;23.278;2023-05-27T09:33:39;65320.03;;;20.12;99.84
21879;BME280;27908;42.708;23.278;2023-05-27T09:36:06;65396.38;;;20.28;93.27
21879;BME280;27908;42.708;23.278;2023-05-27T09:38:35;65428.00;;;20.29;91.77
21879;BME280;27908;42.708;23.278;2023-05-27T09:41:02;65291.84;;;19.96;96.28
21879;BME280;27908;42.708;23.278;2023-05-27T09:43:28;65335.09;;;20.17;96.92
21879;BME280;27908;42.708;23.278;2023-05-27T09:46:01;65383.25;;;20.16;97.16
21879;BME280;27908;42.708;23.278;2023-05-27T09:48:31;65377.28;;;20.32;91.79
21879;BME280;27908;42.708;23.278;2023-05-27T09:50:57;65453.72;;;20.50;93.76
21879;BME280;27908;42.708;23.278;2023-05-27T09:53:24;65383.03;;;20.37;89.70
21879;BME280;27908;42.708;23.278;2023-05-27T09:55:52;65409.34;;;20.28;88.64
21879;BME280;27908;42.708;23.278;2023-05-27T09:58:18;65367.84;;;20.26;87.93
21879;BME280;27908;42.708;23.278;2023-05-27T10:00:45;65420.41;;;20.41;89.53
21879;BME280;27908;42.708;23.278;2023-05-27T10:03:13;65418.97;;;20.49;87.97
21879;BME280;27908;42.708;23.278;2023-05-27T10:05:39;65512.75;;;20.81;87.12
21879;BME280;27908;42.708;23.278;2023-05-27T10:08:05;65611.72;;;21.08;85.96
21879;BME280;27908;42.708;23.278;2023-05-27T10:10:32;65646.47;;;21.39;81.70
21879;BME280;27908;42.708;23.278;2023-05-27T10:12:58;65635.16;;;21.47;84.11
21879;BME280;27908;42.708;23.278;2023-05-27T10:15:29;65713.59;;;21.82;79.15
21879;BME280;27908;42.708;23.278;2023-05-27T10:18:00;65779.41;;;22.05;80.75
21879;BME280;27908;42.708;23.278;2023-05-27T10:20:34;65954.28;;;22.76;79.87
21879;BME280;27908;42.708;23.278;2023-05-27T10:23:13;66038.59;;;23.06;79.04
21879;BME280;27908;42.708;23.278;2023-05-27T10:25:45;66096.47;;;23.40;76.94
21879;BME280;27908;42.708;23.278;2023-05-27T10:28:26;66140.03;;;23.57;72.05
21879;BME280;27908;42.708;23.278;2023-05-27T10:30:52;66005.31;;;23.09;71.35
21879;BME280;27908;42.708;23.278;2023-05-27T10:33:28;66098.63;;;23.45;71.87
21879;BME280;27908;42.708;23.278;2023-05-27T10:35:54;66110.63;;;23.46;69.46
21879;BME280;27908;42.708;23.278;2023-05-27T10:38:20;66075.66;;;23.40;71.63
21879;BME280;27908;42.708;23.278;2023-05-27T10:40:46;66154.19;;;23.62;75.05
21879;BME280;27908;42.708;23.278;2023-05-27T10:43:17;66144.09;;;23.53;68.43
21879;BME280;27908;42.708;23.278;2023-05-27T10:45:42;66040.16;;;23.36;75.16
21879;BME280;27908;42.708;23.278;2023-05-27T10:48:20;66057.06;;;23.50;69.96
21879;BME280;27908;42.708;23.278;2023-05-27T10:50:50;66159.19;;;23.53;70.94
21879;BME280;27908;42.708;23.278;2023-05-27T10:53:18;66010.25;;;23.23;68.66
21879;BME280;27908;42.708;23.278;2023-05-27T10:55:47;66026.03;;;23.33;68.90
21879;BME280;27908;42.708;23.278;2023-05-27T10:58:12;66115.28;;;23.43;69.77
21879;BME280;27908;42.708;23.278;2023-05-27T11:00:39;66078.19;;;23.38;67.08
21879;BME280;27908;42.708;23.278;2023-05-27T11:03:19;66077.84;;;23.47;69.92
21879;BME280;27908;42.708;23.278;2023-05-27T11:05:47;66023.00;;;23.37;68.20
21879;BME280;27908;42.708;23.278;2023-05-27T11:08:12;66003.63;;;23.00;67.39
21879;BME280;27908;42.708;23.278;2023-05-27T11:10:41;65936.41;;;22.66;70.80
21879;BME280;27908;42.708;23.278;2023-05-27T11:13:07;65900.97;;;22.62;73.16
21879;BME280;27908;42.708;23.278;2023-05-27T11:15:33;65962.63;;;22.79;72.89
21879;BME280;27908;42.708;23.278;2023-05-27T11:18:04;65958.28;;;22.96;76.28
21879;BME280;27908;42.708;23.278;2023-05-27T11:20:36;66048.63;;;23.44;74.33
21879;BME280;27908;42.708;23.278;2023-05-27T11:23:02;66147.56;;;23.71;69.33
21879;BME280;27908;42.708;23.278;2023-05-27T11:25:28;66113.09;;;23.65;72.84
21879;BME280;27908;42.708;23.278;2023-05-27T11:27:54;66103.84;;;23.45;66.74
21879;BME280;27908;42.708;23.278;2023-05-27T11:30:24;66104.03;;;23.55;68.17
21879;BME280;27908;42.708;23.278;2023-05-27T11:32:50;66128.78;;;23.41;67.23
21879;BME280;27908;42.708;23.278;2023-05-27T11:35:16;66089.00;;;23.31;71.18
21879;BME280;27908;42.708;23.278;2023-05-27T11:37:50;66090.81;;;23.45;68.79
21879;BME280;27908;42.708;23.278;2023-05-27T11:40:17;66043.69;;;23.30;70.19
21879;BME280;27908;42.708;23.278;2023-05-27T11:42:45;66077.94;;;23.23;67.34
21879;BME280;27908;42.708;23.278;2023-05-27T11:45:18;66064.69;;;23.40;72.01
21879;BME280;27908;42.708;23.278;2023-05-27T11:47:45;66132.31;;;23.35;71.25
21879;BME280;27908;42.708;23.278;2023-05-27T11:50:14;66151.66;;;23.67;68.96
21879;BME280;27908;42.708;23.278;2023-05-27T11:52:50;66122.25;;;23.55;67.96
21879;BME280;27908;42.708;23.278;2023-05-27T11:55:16;66184.16;;;23.78;68.78
21879;BME280;27908;42.708;23.278;2023-05-27T11:57:41;66226.03;;;23.88;65.59
21879;BME280;27908;42.708;23.278;2023-05-27T12:00:07;66255.94;;;23.99;66.58
21879;BME280;27908;42.708;23.278;2023-05-27T12:02:33;66309.75;;;24.30;67.62
21879;BME280;27908;42.708;23.278;2023-05-27T12:04:58;66350.13;;;24.40;69.28
21879;BME280;27908;42.708;23.278;2023-05-27T12:07:24;66421.91;;;24.56;65.22
21879;BME280;27908;42.708;23.278;2023-05-27T12:09:49;66422.97;;;24.84;66.32
21879;BME280;27908;42.708;23.278;2023-05-27T12:12:15;66380.50;;;24.47;63.80
21879;BME280;27908;42.708;23.278;2023-05-27T12:14:40;66355.53;;;24.50;61.54
21879;BME280;27908;42.708;23.278;2023-05-27T12:17:06;66342.50;;;24.50;60.19
21879;BME280;27908;42.708;23.278;2023-05-27T12:19:33;66373.75;;;24.48;60.27
21879;BME280;27908;42.708;23.278;2023-05-27T12:21:59;66501.38;;;24.89;64.64
21879;BME280;27908;42.708;23.278;2023-05-27T12:24:25;66441.75;;;25.08;62.14
21879;BME280;27908;42.708;23.278;2023-05-27T12:26:50;66571.50;;;25.20;57.40
21879;BME280;27908;42.708;23.278;2023-05-27T12:29:16;66549.94;;;25.38;58.08
21879;BME280;27908;42.708;23.278;2023-05-27T12:31:41;66642.41;;;25.61;56.51
21879;BME280;27908;42.708;23.278;2023-05-27T12:34:06;66638.56;;;25.53;57.70
21879;BME280;27908;42.708;23.278;2023-05-27T12:36:32;66710.25;;;25.80;53.68
21879;BME280;27908;42.708;23.278;2023-05-27T12:38:58;66747.72;;;26.20;56.70
21879;BME280;27908;42.708;23.278;2023-05-27T12:41:24;66843.66;;;26.50;54.03
21879;BME280;27908;42.708;23.278;2023-05-27T12:43:49;66892.13;;;26.64;52.79
21879;BME280;27908;42.708;23.278;2023-05-27T12:46:14;67158.34;;;27.52;55.73
21879;BME280;27908;42.708;23.278;2023-05-27T12:48:40;67323.00;;;28.12;51.58